createdAt,value
2018-04-02T00:04:36.313Z,91.00
2018-04-02T00:09:38.932Z,91.00
2018-04-02T00:14:41.579Z,91.10
2018-04-02T00:19:44.209Z,91.00
2018-04-02T00:24:46.849Z,90.80
2018-04-02T00:29:50.233Z,91.00
2018-04-02T00:34:52.866Z,90.90
2018-04-02T00:39:55.496Z,91.10
2018-04-02T00:44:58.145Z,91.10
2018-04-02T00:50:00.767Z,91.20
2018-04-02T00:55:03.405Z,91.30
2018-04-02T01:00:06.025Z,91.30
2018-04-02T01:05:09.630Z,91.40
2018-04-02T01:10:12.266Z,91.50
2018-04-02T01:15:14.889Z,91.90
2018-04-02T01:20:17.539Z,91.90
2018-04-02T01:25:20.178Z,91.80
2018-04-02T01:30:22.807Z,91.80
2018-04-02T01:35:26.222Z,91.90
2018-04-02T01:40:28.855Z,91.90
2018-04-02T01:45:31.511Z,91.90
2018-04-02T01:50:34.898Z,92.00
2018-04-02T01:55:37.527Z,92.00
2018-04-02T02:00:40.171Z,92.20
2018-04-02T02:05:42.813Z,92.20
2018-04-02T02:10:45.438Z,92.30
2018-04-02T02:15:48.086Z,92.30
2018-04-02T02:20:51.494Z,92.50
2018-04-02T02:25:54.124Z,92.50
2018-04-02T02:30:56.769Z,92.50
2018-04-02T02:36:00.178Z,92.30
2018-04-02T02:41:02.824Z,92.30
2018-04-02T02:46:05.459Z,92.40
2018-04-02T02:51:08.870Z,92.30
2018-04-02T02:56:11.498Z,92.30
2018-04-02T03:01:14.136Z,92.30
2018-04-02T03:06:16.766Z,92.20
2018-04-02T03:11:20.176Z,92.40
2018-04-02T03:16:22.801Z,92.10
2018-04-02T03:21:25.429Z,92.20
2018-04-02T03:26:28.056Z,92.20
2018-04-02T03:31:30.680Z,92.10
2018-04-02T03:36:34.310Z,92.20
2018-04-02T03:41:36.942Z,92.20
2018-04-02T03:46:39.591Z,92.30
2018-04-02T03:51:42.222Z,92.20
2018-04-02T03:56:44.849Z,92.30
2018-04-02T04:01:47.490Z,92.40
2018-04-02T04:06:50.139Z,92.20
2018-04-02T04:11:53.524Z,91.90
2018-04-02T04:16:56.164Z,91.90
2018-04-02T04:21:58.786Z,92.00
2018-04-02T04:27:01.442Z,92.00
2018-04-02T04:32:04.081Z,92.20
2018-04-02T04:37:07.472Z,92.00
2018-04-02T04:42:10.113Z,92.00
2018-04-02T04:47:12.741Z,92.10
2018-04-02T04:52:15.388Z,92.00
2018-04-02T04:57:18.038Z,92.30
2018-04-02T05:02:21.429Z,92.10
2018-04-02T05:07:24.081Z,92.10
2018-04-02T05:12:26.732Z,92.10
2018-04-02T05:17:30.126Z,92.10
2018-04-02T05:22:32.762Z,92.10
2018-04-02T05:27:35.417Z,92.00
2018-04-02T05:32:49.415Z,92.00
2018-04-02T05:37:52.806Z,91.90
2018-04-02T05:42:55.498Z,91.90
2018-04-02T05:47:58.149Z,92.00
2018-04-02T05:53:00.798Z,92.20
2018-04-02T05:58:03.425Z,92.10
2018-04-02T06:03:06.064Z,92.10
2018-04-02T06:08:08.699Z,91.90
2018-04-02T06:13:11.343Z,91.90
2018-04-02T06:18:13.997Z,92.00
2018-04-02T06:23:17.392Z,92.50
2018-04-02T06:28:20.040Z,92.50
2018-04-02T06:33:28.473Z,92.30
2018-04-02T06:38:31.116Z,92.30
2018-04-02T06:43:33.762Z,92.30
2018-04-02T06:48:36.573Z,92.20
2018-04-02T06:53:39.222Z,92.50
2018-04-02T06:58:42.623Z,92.20
2018-04-02T07:03:45.281Z,92.20
2018-04-02T07:08:48.688Z,92.30
2018-04-02T07:13:51.309Z,92.20
2018-04-02T07:18:53.960Z,92.40
2018-04-02T07:23:56.631Z,92.10
2018-04-02T07:28:59.286Z,91.70
2018-04-02T07:34:01.920Z,91.80
2018-04-02T07:39:05.410Z,91.40
2018-04-02T07:44:08.838Z,91.00
2018-04-02T07:49:11.499Z,90.90
2018-04-02T07:54:14.125Z,90.90
2018-04-02T07:59:17.530Z,89.30
2018-04-02T08:04:20.194Z,89.30
2018-04-02T08:09:22.838Z,90.10
2018-04-02T08:14:25.653Z,89.70
2018-04-02T08:19:28.309Z,88.30
2018-04-02T08:24:31.720Z,88.10
2018-04-02T08:29:34.346Z,88.00
2018-04-02T08:34:36.999Z,87.80
2018-04-02T08:39:40.417Z,86.00
2018-04-02T08:50:11.634Z,85.70
2018-04-02T08:55:14.285Z,83.50
2018-04-02T09:00:16.921Z,82.70
2018-04-02T09:05:19.621Z,82.10
2018-04-02T09:10:22.237Z,81.40
2018-04-02T09:15:24.867Z,80.30
2018-04-02T09:20:27.506Z,80.40
2018-04-02T09:25:30.141Z,77.40
2018-04-02T09:30:32.774Z,79.00
2018-04-02T09:35:36.194Z,76.00
2018-04-02T09:40:38.830Z,76.00
2018-04-02T09:45:41.489Z,76.00
2018-04-02T09:50:44.117Z,71.50
2018-04-02T09:55:46.742Z,72.40
2018-04-02T10:00:50.138Z,66.20
2018-04-02T10:05:52.778Z,66.20
2018-04-02T10:10:55.404Z,62.80
2018-04-02T10:15:59.030Z,61.50
2018-04-02T10:21:01.667Z,59.00
2018-04-02T11:04:24.442Z,41.70
2018-04-02T11:07:23.729Z,59.60
2018-04-02T11:09:56.938Z,59.50
2018-04-02T11:12:29.582Z,57.40
2018-04-02T11:15:02.183Z,56.60
2018-04-02T11:17:35.537Z,58.10
2018-04-02T11:20:08.152Z,58.40
2018-04-02T11:22:40.745Z,59.80
2018-04-02T11:25:18.737Z,60.40
2018-04-02T11:27:52.238Z,57.80
2018-04-02T11:30:24.865Z,57.30
2018-04-02T11:32:57.469Z,56.40
2018-04-02T11:35:31.084Z,58.00
2018-04-02T11:38:03.681Z,57.70
2018-04-02T11:40:36.317Z,58.20
2018-04-02T11:43:09.087Z,58.70
2018-04-02T11:45:45.186Z,57.60
2018-04-02T11:48:17.985Z,54.20
2018-04-02T11:50:50.649Z,56.20
2018-04-02T11:53:24.013Z,55.10
2018-04-02T11:55:56.752Z,55.10
2018-04-02T11:58:30.105Z,55.70
2018-04-02T12:01:02.738Z,55.80
2018-04-02T12:03:36.514Z,56.20
2018-04-02T12:06:09.150Z,54.60
2018-04-02T12:08:41.746Z,53.70
2018-04-02T12:11:16.043Z,53.20
2018-04-02T12:13:48.642Z,54.20
2018-04-02T12:16:21.280Z,53.80
2018-04-02T12:18:54.650Z,50.80
2018-04-02T12:21:27.262Z,50.80
2018-04-02T12:23:59.848Z,53.50
2018-04-02T12:26:32.470Z,52.90
2018-04-02T12:29:05.067Z,53.20
2018-04-02T12:31:37.707Z,56.60
2018-04-02T12:34:10.302Z,58.00
2018-04-02T12:36:42.934Z,56.80
2018-04-02T12:39:15.555Z,54.60
2018-04-02T12:41:48.169Z,53.60
2018-04-02T12:44:20.787Z,54.20
2018-04-02T12:46:55.007Z,53.30
2018-04-02T12:49:27.607Z,57.80
2018-04-02T12:52:00.218Z,57.00
2018-04-02T12:54:33.577Z,56.40
2018-04-02T12:57:06.198Z,56.50
2018-04-02T12:59:39.573Z,52.10
2018-04-02T13:02:12.219Z,52.30
2018-04-02T13:04:45.611Z,53.20
2018-04-02T13:07:18.217Z,53.20
2018-04-02T13:09:51.578Z,51.90
2018-04-02T13:12:24.194Z,51.90
2018-04-02T13:14:56.794Z,51.20
2018-04-02T13:17:29.404Z,48.70
2018-04-02T13:20:02.001Z,51.60
2018-04-02T13:22:35.401Z,50.70
2018-04-02T13:25:11.463Z,50.70
2018-04-02T13:27:44.093Z,52.70
2018-04-02T13:30:16.686Z,50.50
2018-04-02T13:32:49.302Z,48.50
2018-04-02T13:35:21.906Z,52.40
2018-04-02T13:37:54.563Z,51.20
2018-04-02T13:40:27.911Z,53.90
2018-04-02T13:43:00.534Z,53.90
2018-04-02T13:45:33.130Z,53.60
2018-04-02T13:48:06.517Z,52.50
2018-04-02T13:50:39.122Z,52.50
2018-04-02T13:53:12.738Z,51.90
2018-04-02T13:55:45.330Z,51.60
2018-04-02T13:58:17.961Z,53.40
2018-04-02T14:00:51.910Z,53.20
2018-04-02T14:03:24.526Z,49.10
2018-04-02T14:05:57.123Z,49.70
2018-04-02T14:08:29.734Z,49.90
2018-04-02T14:11:03.097Z,47.50
2018-04-02T14:13:35.718Z,47.40
2018-04-02T14:16:08.305Z,48.60
2018-04-02T14:18:40.936Z,49.00
2018-04-02T14:21:15.009Z,47.70
2018-04-02T14:23:47.678Z,49.40
2018-04-02T14:26:20.278Z,50.40
2018-04-02T14:28:54.352Z,50.50
2018-04-02T14:31:27.718Z,46.50
2018-04-02T14:34:00.347Z,46.40
2018-04-02T14:36:32.947Z,45.10
2018-04-02T14:39:06.346Z,46.90
2018-04-02T14:41:39.713Z,50.10
2018-04-02T14:44:12.326Z,50.10
2018-04-02T14:46:44.942Z,44.50
2018-04-02T14:49:18.325Z,47.30
2018-04-02T14:51:50.981Z,47.10
2018-04-02T14:54:23.730Z,43.80
2018-04-02T14:56:57.691Z,46.40
2018-04-02T14:59:30.345Z,45.30
2018-04-02T15:02:03.657Z,46.60
2018-04-02T15:04:38.006Z,47.10
2018-04-02T15:07:11.370Z,48.20
2018-04-02T15:09:43.981Z,48.30
2018-04-02T15:12:16.634Z,48.70
2018-04-02T15:14:49.250Z,46.50
2018-04-02T15:17:21.905Z,48.00
2018-04-02T15:19:56.424Z,43.40
2018-04-02T15:22:29.045Z,45.70
2018-04-02T15:25:04.775Z,48.30
2018-04-02T15:27:37.398Z,45.50
2018-04-02T15:30:10.014Z,43.70
2018-04-02T15:32:42.618Z,42.00
2018-04-02T15:35:15.255Z,44.00
2018-04-02T15:37:47.944Z,45.10
2018-04-02T15:40:20.559Z,44.10
2018-04-02T15:42:53.158Z,46.30
2018-04-02T15:45:27.714Z,46.90
2018-04-02T15:48:00.313Z,43.70
2018-04-02T15:50:32.929Z,48.20
2018-04-02T15:53:06.290Z,47.40
2018-04-02T15:55:38.916Z,47.20
2018-04-02T15:58:11.506Z,47.80
2018-04-02T16:00:44.953Z,49.70
2018-04-02T16:03:17.557Z,49.50
2018-04-02T16:05:50.244Z,50.10
2018-04-02T16:08:23.768Z,48.20
2018-04-02T16:10:56.402Z,46.10
2018-04-02T16:13:28.993Z,46.50
2018-04-02T16:16:02.992Z,46.70
2018-04-02T16:18:35.586Z,46.50
2018-04-02T16:21:08.241Z,46.80
2018-04-02T16:23:40.875Z,46.10
2018-04-02T16:26:13.516Z,48.50
2018-04-02T16:28:46.103Z,47.70
2018-04-02T16:31:18.712Z,48.00
2018-04-02T16:33:51.369Z,47.50
2018-04-02T16:36:23.978Z,47.10
2018-04-02T16:38:56.585Z,47.60
2018-04-02T16:41:29.210Z,48.70
2018-04-02T16:44:01.823Z,48.40
2018-04-02T16:46:34.454Z,47.90
2018-04-02T16:49:07.041Z,47.20
2018-04-02T16:51:40.864Z,47.10
2018-04-02T16:54:13.476Z,47.90
2018-04-02T16:56:46.125Z,47.60
2018-04-02T16:59:19.496Z,48.50
2018-04-02T17:01:52.139Z,48.40
2018-04-02T17:04:25.530Z,49.60
2018-04-02T17:06:58.925Z,49.60
2018-04-02T17:09:31.527Z,49.50
2018-04-02T17:12:04.161Z,49.50
2018-04-02T17:14:36.823Z,50.80
2018-04-02T17:17:10.205Z,51.30
2018-04-02T17:19:42.818Z,51.30
2018-04-02T17:22:16.223Z,51.90
2018-04-02T17:24:49.603Z,51.60
2018-04-02T17:27:22.223Z,51.60
2018-04-02T17:29:54.833Z,51.40
2018-04-02T17:32:28.227Z,52.60
2018-04-02T17:35:00.821Z,52.50
2018-04-02T17:37:33.435Z,54.10
2018-04-02T17:40:06.046Z,53.20
2018-04-02T17:42:38.678Z,54.00
2018-04-02T17:45:11.271Z,55.00
2018-04-02T17:47:43.901Z,54.90
2018-04-02T17:50:17.264Z,55.90
2018-04-02T17:52:49.896Z,55.90
2018-04-02T17:55:23.259Z,55.20
2018-04-02T17:57:55.877Z,55.20
2018-04-02T18:00:28.465Z,57.00
2018-04-02T18:03:01.083Z,57.50
2018-04-02T18:05:34.450Z,55.50
2018-04-02T18:08:07.838Z,55.30
2018-04-02T18:10:40.442Z,55.30
2018-04-02T18:13:13.089Z,56.70
2018-04-02T18:15:46.510Z,61.50
2018-04-02T18:18:19.167Z,61.40
2018-04-02T18:20:51.765Z,63.40
2018-04-02T18:23:24.374Z,60.30
2018-04-02T18:25:57.737Z,61.80
2018-04-02T18:28:30.365Z,61.80
2018-04-02T18:31:02.953Z,63.80
2018-04-02T18:33:35.578Z,66.40
2018-04-02T18:36:08.173Z,66.90
2018-04-02T18:38:40.795Z,66.00
2018-04-02T18:41:13.399Z,65.40
2018-04-02T18:43:46.033Z,64.30
2018-04-02T18:46:19.404Z,64.80
2018-04-02T18:48:52.050Z,64.70
2018-04-02T18:51:24.665Z,65.30
2018-04-02T18:53:57.293Z,65.20
2018-04-02T18:56:29.887Z,65.40
2018-04-02T18:59:02.527Z,65.70
2018-04-02T19:01:35.113Z,65.10
2018-04-02T19:04:07.738Z,66.20
2018-04-02T19:06:40.361Z,66.20
2018-04-02T19:09:13.880Z,66.60
2018-04-02T19:11:47.247Z,66.50
2018-04-02T19:14:19.961Z,66.40
2018-04-02T19:16:52.560Z,67.00
2018-04-02T19:19:25.181Z,66.70
2018-04-02T19:21:57.884Z,66.00
2018-04-02T19:24:30.502Z,66.50
2018-04-02T19:27:03.278Z,66.10
2018-04-02T19:29:38.006Z,66.00
2018-04-02T19:32:10.601Z,66.10
2018-04-02T19:34:43.233Z,67.20
2018-04-02T19:37:15.827Z,67.10
2018-04-02T19:39:48.530Z,68.30
2018-04-02T19:42:21.124Z,67.20
2018-04-02T19:44:53.738Z,67.20
2018-04-02T19:47:27.101Z,66.90
2018-04-02T19:49:59.725Z,66.90
2018-04-02T19:52:35.696Z,67.20
2018-04-02T19:55:08.382Z,67.10
2018-04-02T19:57:40.983Z,66.50
2018-04-02T20:00:13.602Z,67.00
2018-04-02T20:02:46.333Z,66.30
2018-04-02T20:05:19.078Z,66.90
2018-04-02T20:07:51.857Z,67.40
2018-04-02T20:10:24.552Z,67.10
2018-04-02T20:12:57.217Z,67.00
2018-04-02T20:15:30.810Z,66.30
2018-04-02T20:18:03.529Z,66.30
2018-04-02T20:20:36.376Z,66.70
2018-04-02T20:23:09.054Z,66.80
2018-04-02T20:25:41.682Z,67.30
2018-04-02T20:28:14.290Z,67.00
2018-04-02T20:30:46.991Z,67.60
2018-04-02T20:33:19.618Z,67.00
2018-04-02T20:35:52.314Z,66.30
2018-04-02T20:38:25.669Z,67.90
2018-04-02T20:40:58.301Z,68.60
2018-04-02T20:43:30.898Z,66.90
2018-04-02T20:46:03.528Z,65.80
2018-04-02T20:48:36.127Z,65.50
2018-04-02T20:51:09.587Z,65.60
2018-04-02T20:53:42.190Z,66.00
2018-04-02T20:56:15.584Z,65.90
2018-04-02T20:58:48.174Z,65.80
2018-04-02T21:01:20.788Z,66.50
2018-04-02T21:03:54.153Z,67.20
2018-04-02T21:06:26.790Z,66.30
2018-04-02T21:09:00.978Z,66.80
2018-04-02T21:11:33.606Z,66.70
2018-04-02T21:14:06.212Z,66.90
2018-04-02T21:16:38.846Z,67.00
2018-04-02T21:19:11.519Z,66.90
2018-04-02T21:21:44.150Z,67.40
2018-04-02T21:24:16.753Z,67.50
2018-04-02T21:26:49.385Z,67.80
2018-04-02T21:29:21.984Z,68.10
2018-04-02T21:31:54.601Z,67.60
2018-04-02T21:34:27.230Z,68.00
2018-04-02T21:37:00.638Z,68.40
2018-04-02T21:39:33.234Z,68.20
2018-04-02T21:42:06.618Z,68.50
2018-04-02T21:44:39.217Z,68.40
2018-04-02T21:47:11.844Z,68.90
2018-04-02T21:49:45.355Z,68.70
2018-04-02T21:52:17.983Z,68.90
2018-04-02T21:54:50.594Z,69.30
2018-04-02T21:57:23.230Z,69.70
2018-04-02T21:59:56.597Z,69.70
2018-04-02T22:02:29.210Z,69.70
2018-04-02T22:05:01.820Z,70.00
2018-04-02T22:07:35.207Z,69.80
2018-04-02T22:10:07.802Z,69.80
2018-04-02T22:12:40.421Z,70.20
2018-04-02T22:15:13.018Z,69.90
2018-04-02T22:17:45.634Z,70.20
2018-04-02T22:20:18.241Z,70.20
2018-04-02T22:22:50.881Z,70.30
2018-04-02T22:25:24.255Z,70.30
2018-04-02T22:27:56.874Z,70.20
2018-04-02T22:30:30.234Z,70.90
2018-04-02T22:33:02.878Z,70.80
2018-04-02T22:35:36.241Z,71.20
2018-04-02T22:38:08.873Z,71.20
2018-04-02T22:40:42.233Z,71.30
2018-04-02T22:43:14.870Z,71.30
2018-04-02T22:45:47.482Z,71.30
2018-04-02T22:48:20.110Z,71.30
2018-04-02T22:50:52.715Z,71.50
2018-04-02T22:53:25.349Z,72.40
2018-04-02T22:55:58.722Z,72.90
2018-04-02T22:58:31.350Z,72.70
2018-04-02T23:01:04.717Z,72.70
2018-04-02T23:03:37.338Z,72.80
2018-04-02T23:06:10.702Z,72.40
2018-04-02T23:08:43.322Z,72.30
2018-04-02T23:11:15.925Z,72.60
2018-04-02T23:13:48.565Z,72.90
2018-04-02T23:16:21.173Z,73.00
2018-04-02T23:18:53.794Z,72.80
2018-04-02T23:21:26.399Z,73.30
2018-04-02T23:23:59.786Z,73.50
2018-04-02T23:26:32.383Z,73.40
2018-04-02T23:29:05.016Z,73.60
2018-04-02T23:31:37.610Z,73.60
2018-04-02T23:34:10.224Z,73.80
2018-04-02T23:36:42.829Z,74.30
2018-04-02T23:39:15.482Z,74.20
2018-04-02T23:41:48.090Z,74.60
2018-04-02T23:44:20.717Z,74.90
2018-04-02T23:46:53.326Z,75.30
2018-04-02T23:49:25.968Z,75.40
2018-04-02T23:51:58.567Z,75.40
2018-04-02T23:54:31.205Z,75.60
2018-04-02T23:57:04.579Z,75.80
2018-04-02T23:59:37.216Z,75.80
